createdAt,value
2022-08-14T00:01:54.970Z,57.91
2022-08-14T00:04:34.410Z,57.81
2022-08-14T00:07:08.694Z,57.84
2022-08-14T00:09:55.356Z,57.94
2022-08-14T00:12:24.743Z,57.89
2022-08-14T00:15:00.399Z,58.04
2022-08-14T00:17:29.681Z,58.20
2022-08-14T00:19:58.461Z,58.08
2022-08-14T00:22:56.129Z,58.25
2022-08-14T00:25:13.765Z,58.21
2022-08-14T00:27:42.486Z,58.22
2022-08-14T00:30:11.090Z,58.32
2022-08-14T00:32:53.229Z,58.38
2022-08-14T00:35:43.039Z,58.49
2022-08-14T00:38:10.800Z,58.50
2022-08-14T00:40:38.060Z,58.37
2022-08-14T00:43:06.437Z,58.57
2022-08-14T00:45:34.107Z,58.67
2022-08-14T00:48:01.075Z,58.67
2022-08-14T00:50:30.676Z,58.65
2022-08-14T00:53:00.350Z,58.73
2022-08-14T00:55:31.014Z,58.79
2022-08-14T00:58:18.145Z,59.04
2022-08-14T01:00:51.249Z,59.13
2022-08-14T01:03:20.118Z,58.98
2022-08-14T01:05:52.085Z,59.10
2022-08-14T01:08:51.792Z,59.23
2022-08-14T01:11:08.217Z,59.37
2022-08-14T01:13:42.505Z,59.39
2022-08-14T01:16:15.114Z,59.47
2022-08-14T01:19:02.137Z,59.48
2022-08-14T01:21:38.878Z,59.53
2022-08-14T01:24:24.871Z,59.47
2022-08-14T01:27:00.479Z,59.45
2022-08-14T01:29:52.012Z,59.58
2022-08-14T01:32:22.877Z,59.84
2022-08-14T01:35:18.976Z,59.71
2022-08-14T01:37:44.122Z,59.81
2022-08-14T01:40:11.930Z,59.81
2022-08-14T01:42:44.398Z,59.75
2022-08-14T01:45:17.947Z,59.92
2022-08-14T01:48:03.614Z,59.83
2022-08-14T01:50:33.764Z,59.73
2022-08-14T01:53:01.716Z,59.75
2022-08-14T01:55:32.348Z,59.87
2022-08-14T01:58:18.458Z,59.97
2022-08-14T02:00:48.247Z,59.92
2022-08-14T02:03:16.595Z,59.79
2022-08-14T02:05:43.678Z,59.90
2022-08-14T02:08:10.842Z,60.03
2022-08-14T02:10:46.371Z,60.00
2022-08-14T02:13:16.447Z,60.20
2022-08-14T02:15:44.283Z,60.19
2022-08-14T02:18:11.864Z,60.16
2022-08-14T02:20:42.266Z,60.17
2022-08-14T02:23:09.521Z,60.05
2022-08-14T02:25:39.518Z,60.21
2022-08-14T02:28:24.609Z,60.07
2022-08-14T02:30:53.623Z,60.08
2022-08-14T02:33:22.644Z,60.13
2022-08-14T02:35:53.404Z,59.97
2022-08-14T02:38:29.920Z,60.22
2022-08-14T02:41:01.182Z,60.08
2022-08-14T02:43:36.541Z,60.07
2022-08-14T02:46:09.109Z,60.20
2022-08-14T02:49:04.605Z,60.21
2022-08-14T02:51:30.680Z,60.18
2022-08-14T02:53:58.737Z,59.99
2022-08-14T02:56:30.711Z,60.05
2022-08-14T02:59:16.184Z,60.09
2022-08-14T03:01:50.790Z,60.14
2022-08-14T03:04:21.755Z,60.08
2022-08-14T03:06:57.357Z,60.16
2022-08-14T03:09:41.713Z,60.09
2022-08-14T03:12:30.926Z,60.09
2022-08-14T03:14:59.731Z,60.24
2022-08-14T03:17:32.031Z,60.36
2022-08-14T03:20:11.259Z,60.36
2022-08-14T03:22:41.888Z,60.51
2022-08-14T03:25:10.979Z,60.45
2022-08-14T03:27:48.228Z,60.38
2022-08-14T03:30:39.657Z,60.21
2022-08-14T03:33:11.910Z,60.39
2022-08-14T03:35:59.794Z,60.43
2022-08-14T03:39:12.463Z,60.51
2022-08-14T03:41:16.815Z,60.40
2022-08-14T03:43:57.160Z,60.72
2022-08-14T03:46:52.124Z,60.64
2022-08-14T03:49:28.853Z,60.72
2022-08-14T03:51:58.359Z,60.69
2022-08-14T03:54:28.531Z,60.80
2022-08-14T03:57:02.542Z,60.99
2022-08-14T03:59:31.269Z,61.02
2022-08-14T04:02:02.283Z,61.01
2022-08-14T04:04:31.887Z,61.24
2022-08-14T04:07:01.011Z,61.30
2022-08-14T04:09:28.043Z,61.46
2022-08-14T04:11:55.954Z,61.43
2022-08-14T04:14:23.738Z,61.44
2022-08-14T04:16:50.845Z,61.34
2022-08-14T04:19:20.756Z,61.47
2022-08-14T04:22:02.925Z,61.63
2022-08-14T04:24:37.943Z,61.57
2022-08-14T04:27:13.032Z,61.47
2022-08-14T04:29:45.116Z,61.58
2022-08-14T04:32:59.323Z,61.54
2022-08-14T04:35:07.205Z,61.55
2022-08-14T04:37:54.022Z,60.84
2022-08-14T04:40:40.592Z,60.75
2022-08-14T04:43:38.351Z,60.58
2022-08-14T04:46:56.351Z,60.52
2022-08-14T04:49:04.541Z,60.80
2022-08-14T04:51:46.334Z,60.62
2022-08-14T04:54:22.940Z,60.53
2022-08-14T04:56:52.014Z,60.53
2022-08-14T04:59:21.475Z,60.42
2022-08-14T05:01:53.915Z,60.35
2022-08-14T05:04:25.237Z,60.31
2022-08-14T05:06:54.260Z,60.23
2022-08-14T05:09:29.177Z,60.17
2022-08-14T05:12:00.659Z,60.09
2022-08-14T05:14:55.197Z,60.06
2022-08-14T05:17:32.141Z,59.90
2022-08-14T05:21:04.753Z,59.99
2022-08-14T05:22:59.977Z,60.14
2022-08-14T05:25:30.997Z,60.27
2022-08-14T05:28:24.387Z,60.09
2022-08-14T05:30:57.995Z,60.03
2022-08-14T05:33:26.428Z,59.98
2022-08-14T05:36:01.255Z,60.13
2022-08-14T05:38:31.354Z,59.90
2022-08-14T05:40:59.919Z,59.56
2022-08-14T05:43:40.754Z,59.32
2022-08-14T05:46:15.228Z,58.83
2022-08-14T05:48:42.964Z,58.41
2022-08-14T05:51:10.595Z,58.27
2022-08-14T05:53:37.504Z,58.38
2022-08-14T05:56:09.572Z,58.16
2022-08-14T05:58:41.082Z,57.77
2022-08-14T06:01:09.854Z,57.40
2022-08-14T06:03:37.281Z,57.32
2022-08-14T06:06:08.049Z,57.21
2022-08-14T06:08:40.910Z,57.02
2022-08-14T06:11:08.778Z,56.79
2022-08-14T06:13:45.457Z,56.51
2022-08-14T06:16:17.486Z,56.16
2022-08-14T06:18:47.536Z,56.03
2022-08-14T06:21:16.124Z,55.75
2022-08-14T06:23:44.714Z,55.72
2022-08-14T06:26:16.358Z,55.62
2022-08-14T06:28:47.924Z,55.45
2022-08-14T06:31:20.949Z,55.31
2022-08-14T06:35:11.124Z,55.04
2022-08-14T06:36:36.929Z,54.88
2022-08-14T06:39:04.418Z,54.87
2022-08-14T06:41:58.708Z,54.68
2022-08-14T06:44:32.638Z,54.30
2022-08-14T06:47:02.107Z,54.36
2022-08-14T06:49:30.197Z,53.84
2022-08-14T06:51:57.615Z,54.03
2022-08-14T06:54:31.064Z,54.04
2022-08-14T06:56:58.764Z,54.02
2022-08-14T06:59:25.596Z,53.86
2022-08-14T07:02:13.235Z,53.75
2022-08-14T07:04:59.107Z,53.76
2022-08-14T07:07:28.721Z,53.85
2022-08-14T07:09:56.656Z,53.70
2022-08-14T07:12:54.976Z,53.63
2022-08-14T07:15:11.239Z,53.64
2022-08-14T07:17:46.542Z,53.49
2022-08-14T07:20:31.007Z,53.52
2022-08-14T07:23:07.646Z,53.50
2022-08-14T07:25:37.492Z,53.30
2022-08-14T07:28:20.686Z,53.02
2022-08-14T07:30:50.915Z,52.84
2022-08-14T07:33:20.757Z,52.39
2022-08-14T07:35:58.483Z,51.94
2022-08-14T07:38:36.204Z,51.70
2022-08-14T07:41:11.738Z,51.72
2022-08-14T07:43:42.693Z,51.72
2022-08-14T07:46:11.083Z,51.56
2022-08-14T07:48:41.397Z,51.00
2022-08-14T07:51:11.213Z,50.97
2022-08-14T07:53:40.640Z,50.81
2022-08-14T07:56:36.789Z,51.03
2022-08-14T07:58:58.777Z,50.66
2022-08-14T08:01:26.554Z,50.19
2022-08-14T08:03:57.307Z,50.10
2022-08-14T08:06:27.558Z,49.76
2022-08-14T08:09:01.143Z,49.73
2022-08-14T08:11:34.832Z,49.50
2022-08-14T08:14:16.530Z,49.36
2022-08-14T08:16:45.934Z,49.17
2022-08-14T08:19:14.101Z,49.26
2022-08-14T08:21:43.846Z,48.97
2022-08-14T08:24:12.565Z,48.76
2022-08-14T08:26:47.447Z,48.72
2022-08-14T08:29:22.528Z,48.27
2022-08-14T08:31:55.399Z,47.85
2022-08-14T08:34:23.483Z,47.76
2022-08-14T08:36:51.040Z,47.51
2022-08-14T08:39:22.388Z,47.28
2022-08-14T08:41:50.653Z,46.90
2022-08-14T08:44:33.141Z,46.88
2022-08-14T08:47:06.519Z,46.44
2022-08-14T08:49:48.839Z,46.16
2022-08-14T08:52:31.281Z,45.77
2022-08-14T08:55:01.122Z,45.37
2022-08-14T08:57:36.063Z,44.76
2022-08-14T09:00:24.157Z,44.20
2022-08-14T09:02:54.835Z,43.79
2022-08-14T09:05:23.569Z,44.19
2022-08-14T09:07:50.770Z,44.24
2022-08-14T09:10:23.735Z,43.53
2022-08-14T09:12:56.361Z,43.37
2022-08-14T09:15:24.041Z,43.28
2022-08-14T09:17:51.291Z,43.76
2022-08-14T09:20:26.258Z,44.54
2022-08-14T09:22:59.206Z,43.85
2022-08-14T09:26:00.261Z,43.37
2022-08-14T09:28:13.280Z,43.35
2022-08-14T09:30:54.547Z,43.08
2022-08-14T09:33:55.969Z,42.97
2022-08-14T09:36:30.473Z,42.42
2022-08-14T09:39:11.788Z,41.86
2022-08-14T09:42:21.827Z,41.19
2022-08-14T09:45:30.370Z,41.19
2022-08-14T09:48:14.948Z,41.09
2022-08-14T09:54:19.269Z,41.00
2022-08-14T09:56:30.426Z,40.64
2022-08-14T09:59:01.141Z,40.40
2022-08-14T10:01:36.331Z,40.26
2022-08-14T10:04:35.054Z,40.06
2022-08-14T10:06:54.290Z,39.51
2022-08-14T10:09:21.240Z,38.92
2022-08-14T10:11:58.878Z,39.12
2022-08-14T10:14:35.209Z,38.79
2022-08-14T10:17:06.324Z,40.10
2022-08-14T10:19:35.536Z,39.55
2022-08-14T10:23:11.746Z,39.49
2022-08-14T10:24:59.852Z,38.76
2022-08-14T10:27:28.730Z,38.19
2022-08-14T10:30:04.698Z,37.92
2022-08-14T10:32:51.674Z,37.47
2022-08-14T10:35:22.345Z,37.28
2022-08-14T10:37:53.529Z,36.96
2022-08-14T10:40:38.329Z,36.56
2022-08-14T10:43:31.941Z,36.57
2022-08-14T10:46:21.591Z,36.43
2022-08-14T10:48:58.030Z,36.00
2022-08-14T10:51:26.705Z,35.81
2022-08-14T10:53:58.875Z,35.45
2022-08-14T10:56:35.858Z,35.32
2022-08-14T10:59:08.308Z,35.15
2022-08-14T11:01:41.216Z,34.98
2022-08-14T11:04:30.332Z,34.91
2022-08-14T11:06:57.848Z,34.47
2022-08-14T11:09:26.446Z,34.34
2022-08-14T11:12:34.392Z,34.49
2022-08-14T11:15:01.830Z,34.28
2022-08-14T11:17:31.786Z,34.04
2022-08-14T11:20:01.127Z,33.06
2022-08-14T11:22:55.590Z,33.54
2022-08-14T11:25:16.732Z,33.58
2022-08-14T11:27:45.214Z,33.39
2022-08-14T11:30:50.343Z,33.21
2022-08-14T11:33:05.367Z,33.07
2022-08-14T11:35:43.884Z,32.92
2022-08-14T11:38:14.069Z,32.75
2022-08-14T11:40:46.656Z,32.53
2022-08-14T11:43:14.907Z,32.76
2022-08-14T11:45:45.773Z,32.50
2022-08-14T11:49:01.876Z,31.28
2022-08-14T11:51:04.959Z,32.11
2022-08-14T11:53:35.595Z,32.13
2022-08-14T11:56:10.957Z,32.03
2022-08-14T11:58:38.706Z,31.86
2022-08-14T12:01:09.715Z,31.71
2022-08-14T12:03:46.831Z,31.29
2022-08-14T12:06:29.827Z,31.23
2022-08-14T12:09:08.748Z,31.50
2022-08-14T12:11:46.949Z,31.42
2022-08-14T12:14:30.625Z,31.47
2022-08-14T12:17:12.128Z,31.41
2022-08-14T12:19:51.502Z,31.15
2022-08-14T12:22:40.059Z,31.05
2022-08-14T12:25:15.514Z,30.69
2022-08-14T12:27:51.815Z,30.53
2022-08-14T12:30:43.396Z,30.71
2022-08-14T12:33:26.886Z,30.61
2022-08-14T12:36:04.791Z,30.62
2022-08-14T12:38:44.347Z,30.63
2022-08-14T12:41:21.191Z,30.71
2022-08-14T12:44:00.194Z,30.51
2022-08-14T12:46:35.035Z,30.56
2022-08-14T12:49:34.851Z,30.39
2022-08-14T12:52:02.968Z,30.18
2022-08-14T12:54:32.300Z,30.31
2022-08-14T12:57:20.593Z,30.23
2022-08-14T12:59:50.522Z,29.69
2022-08-14T13:02:26.598Z,29.99
2022-08-14T13:04:58.241Z,29.90
2022-08-14T13:07:32.547Z,30.24
2022-08-14T13:10:00.382Z,30.08
2022-08-14T13:12:56.789Z,29.87
2022-08-14T13:15:27.531Z,30.09
2022-08-14T13:17:56.933Z,30.22
2022-08-14T13:20:29.842Z,30.11
2022-08-14T13:23:03.005Z,30.40
2022-08-14T13:25:30.090Z,30.50
2022-08-14T13:28:01.815Z,30.16
2022-08-14T13:30:30.335Z,30.13
2022-08-14T13:33:06.822Z,30.20
2022-08-14T13:35:46.315Z,30.25
2022-08-14T13:38:13.673Z,30.14
2022-08-14T13:40:41.062Z,30.33
2022-08-14T13:43:09.719Z,30.38
2022-08-14T13:46:00.984Z,29.93
2022-08-14T13:48:32.692Z,30.52
2022-08-14T13:51:04.875Z,30.61
2022-08-14T13:53:37.798Z,30.60
2022-08-14T13:56:05.316Z,30.59
2022-08-14T13:58:35.589Z,30.77
2022-08-14T14:01:04.997Z,30.70
2022-08-14T14:03:35.205Z,30.77
2022-08-14T14:06:02.715Z,30.97
2022-08-14T14:08:45.619Z,30.94
2022-08-14T14:11:16.571Z,31.12
2022-08-14T14:13:46.457Z,31.10
2022-08-14T14:16:21.998Z,31.51
2022-08-14T14:19:09.489Z,31.50
2022-08-14T14:21:40.563Z,31.70
2022-08-14T14:24:14.663Z,31.60
2022-08-14T14:26:49.939Z,31.86
2022-08-14T14:29:19.303Z,31.90
2022-08-14T14:31:53.691Z,31.83
2022-08-14T14:34:29.301Z,32.32
2022-08-14T14:37:03.123Z,32.40
2022-08-14T14:39:35.196Z,32.32
2022-08-14T14:42:06.520Z,32.37
2022-08-14T14:44:36.123Z,32.51
2022-08-14T14:47:03.347Z,32.59
2022-08-14T14:49:51.329Z,32.05
2022-08-14T14:52:27.589Z,32.44
2022-08-14T14:54:56.820Z,32.76
2022-08-14T14:57:30.331Z,33.05
2022-08-14T15:00:05.996Z,32.94
2022-08-14T15:02:36.625Z,33.00
2022-08-14T15:05:09.180Z,32.90
2022-08-14T15:07:37.693Z,33.04
2022-08-14T15:10:27.613Z,32.96
2022-08-14T15:12:57.869Z,33.32
2022-08-14T15:15:28.509Z,33.43
2022-08-14T15:18:01.062Z,33.66
2022-08-14T15:20:31.452Z,33.60
2022-08-14T15:23:12.280Z,33.66
2022-08-14T15:25:41.517Z,33.86
2022-08-14T15:28:12.973Z,33.93
2022-08-14T15:30:41.114Z,33.83
2022-08-14T15:33:10.477Z,33.88
2022-08-14T15:35:45.002Z,33.83
2022-08-14T15:38:17.793Z,33.91
2022-08-14T15:40:51.524Z,34.01
2022-08-14T15:43:27.189Z,34.04
2022-08-14T15:45:56.533Z,34.14
2022-08-14T15:48:24.138Z,34.28
2022-08-14T15:50:51.925Z,34.39
2022-08-14T15:53:22.467Z,34.54
2022-08-14T15:55:50.869Z,34.64
2022-08-14T15:58:20.835Z,34.65
2022-08-14T16:01:07.237Z,34.63
2022-08-14T16:03:36.495Z,34.74
2022-08-14T16:06:15.662Z,34.83
2022-08-14T16:08:58.511Z,34.71
2022-08-14T16:11:26.155Z,34.98
2022-08-14T16:13:57.516Z,35.17
2022-08-14T16:16:34.571Z,35.48
2022-08-14T16:19:18.525Z,35.44
2022-08-14T16:22:02.030Z,35.48
2022-08-14T16:24:36.113Z,35.57
2022-08-14T16:27:38.778Z,35.55
2022-08-14T16:30:20.691Z,35.65
2022-08-14T16:32:55.320Z,35.68
2022-08-14T16:35:42.291Z,35.84
2022-08-14T16:38:44.918Z,35.95
2022-08-14T16:41:22.828Z,36.11
2022-08-14T16:43:52.387Z,36.32
2022-08-14T16:46:20.653Z,36.42
2022-08-14T16:48:55.480Z,36.58
2022-08-14T16:51:27.997Z,36.55
2022-08-14T16:53:58.174Z,36.81
2022-08-14T16:56:28.165Z,36.86
2022-08-14T16:59:09.544Z,37.00
2022-08-14T17:01:41.849Z,36.82
2022-08-14T17:04:25.273Z,37.10
2022-08-14T17:06:57.042Z,37.40
2022-08-14T17:09:31.490Z,37.33
2022-08-14T17:12:07.172Z,37.52
2022-08-14T17:14:58.103Z,37.68
2022-08-14T17:17:41.432Z,37.79
2022-08-14T17:20:34.736Z,37.79
2022-08-14T17:23:11.117Z,37.87
2022-08-14T17:25:38.417Z,37.97
2022-08-14T17:28:51.280Z,38.04
2022-08-14T17:31:02.496Z,38.36
2022-08-14T17:33:40.500Z,38.35
2022-08-14T17:36:20.224Z,38.46
2022-08-14T17:39:11.954Z,38.60
2022-08-14T17:42:02.025Z,38.70
2022-08-14T17:44:44.864Z,38.92
2022-08-14T17:47:14.703Z,39.06
2022-08-14T17:49:52.693Z,39.11
2022-08-14T17:52:34.458Z,39.32
2022-08-14T17:55:06.845Z,39.52
2022-08-14T17:57:35.217Z,39.78
2022-08-14T18:00:16.407Z,39.97
2022-08-14T18:02:51.000Z,40.00
2022-08-14T18:05:23.764Z,40.11
2022-08-14T18:08:33.572Z,39.98
2022-08-14T18:10:58.791Z,40.30
2022-08-14T18:13:50.745Z,40.59
2022-08-14T18:16:20.283Z,40.88
2022-08-14T18:18:50.355Z,41.08
2022-08-14T18:21:42.677Z,41.05
2022-08-14T18:24:28.300Z,40.76
2022-08-14T18:27:01.738Z,41.17
2022-08-14T18:29:31.591Z,41.29
2022-08-14T18:31:59.965Z,41.50
2022-08-14T18:34:37.600Z,41.54
2022-08-14T18:37:17.276Z,41.31
2022-08-14T18:40:02.267Z,41.57
2022-08-14T18:42:32.560Z,42.04
2022-08-14T18:45:01.378Z,42.07
2022-08-14T18:47:32.622Z,42.22
2022-08-14T18:50:27.103Z,42.69
2022-08-14T18:53:06.942Z,42.57
2022-08-14T18:55:47.478Z,42.66
2022-08-14T18:58:30.465Z,43.38
2022-08-14T19:01:01.670Z,43.75
2022-08-14T19:03:36.858Z,44.02
2022-08-14T19:06:08.790Z,44.53
2022-08-14T19:08:47.142Z,44.59
2022-08-14T19:11:32.793Z,44.67
2022-08-14T19:14:05.011Z,44.83
2022-08-14T19:16:36.295Z,44.98
2022-08-14T19:19:08.760Z,45.12
2022-08-14T19:21:40.877Z,45.44
2022-08-14T19:24:27.585Z,45.88
2022-08-14T19:27:16.383Z,46.16
2022-08-14T19:29:47.828Z,46.43
2022-08-14T19:32:36.624Z,46.56
2022-08-14T19:35:16.534Z,46.70
2022-08-14T19:37:54.951Z,47.07
2022-08-14T19:40:42.792Z,47.45
2022-08-14T19:43:10.237Z,47.57
2022-08-14T19:45:38.379Z,47.60
2022-08-14T19:48:13.408Z,47.70
2022-08-14T19:50:44.349Z,47.81
2022-08-14T19:53:17.588Z,47.87
2022-08-14T19:55:57.127Z,48.09
2022-08-14T19:58:54.002Z,48.15
2022-08-14T20:01:26.282Z,48.18
2022-08-14T20:04:45.159Z,48.36
2022-08-14T20:06:55.883Z,48.43
2022-08-14T20:11:08.125Z,48.53
2022-08-14T20:12:35.334Z,48.63
2022-08-14T20:15:08.830Z,48.68
2022-08-14T20:17:40.444Z,48.73
2022-08-14T20:20:32.043Z,48.81
2022-08-14T20:23:11.349Z,48.94
2022-08-14T20:25:45.438Z,48.92
2022-08-14T20:28:30.664Z,48.89
2022-08-14T20:31:18.121Z,48.99
2022-08-14T20:34:24.675Z,49.30
2022-08-14T20:37:04.436Z,49.29
2022-08-14T20:39:34.434Z,49.55
2022-08-14T20:42:34.957Z,49.62
2022-08-14T20:45:24.641Z,49.75
2022-08-14T20:48:01.499Z,49.90
2022-08-14T20:50:29.831Z,49.92
2022-08-14T20:53:05.844Z,50.03
2022-08-14T20:55:41.682Z,50.03
2022-08-14T20:58:41.965Z,50.15
2022-08-14T21:01:11.391Z,50.11
2022-08-14T21:03:56.898Z,50.05
2022-08-14T21:07:22.951Z,50.16
2022-08-14T21:10:03.439Z,50.10
2022-08-14T21:12:34.984Z,50.18
2022-08-14T21:15:00.914Z,50.29
2022-08-14T21:17:29.754Z,50.16
2022-08-14T21:19:56.949Z,50.35
2022-08-14T21:22:23.890Z,50.40
2022-08-14T21:25:02.141Z,50.46
2022-08-14T21:27:37.110Z,50.59
2022-08-14T21:30:08.762Z,50.74
2022-08-14T21:32:50.084Z,50.73
2022-08-14T21:35:26.044Z,50.82
2022-08-14T21:37:53.995Z,50.87
2022-08-14T21:40:41.522Z,50.82
2022-08-14T21:43:14.859Z,50.97
2022-08-14T21:45:45.156Z,51.02
2022-08-14T21:48:21.010Z,51.00
2022-08-14T21:51:02.091Z,51.08
2022-08-14T21:53:58.183Z,51.08
2022-08-14T21:56:38.763Z,51.22
2022-08-14T21:59:17.832Z,51.24
2022-08-14T22:02:01.780Z,51.28
2022-08-14T22:04:40.022Z,51.40
2022-08-14T22:07:10.855Z,51.41
2022-08-14T22:09:43.000Z,51.46
2022-08-14T22:12:57.990Z,51.54
2022-08-14T22:15:07.014Z,51.63
2022-08-14T22:17:34.803Z,51.69
2022-08-14T22:20:07.300Z,51.64
2022-08-14T22:22:34.985Z,51.72
2022-08-14T22:25:09.098Z,51.83
2022-08-14T22:27:55.447Z,51.91
2022-08-14T22:30:24.347Z,51.80
2022-08-14T22:32:57.894Z,51.86
2022-08-14T22:35:26.790Z,51.94
2022-08-14T22:38:34.680Z,52.05
2022-08-14T22:41:07.080Z,52.13
2022-08-14T22:43:31.435Z,52.18
2022-08-14T22:46:02.114Z,52.33
2022-08-14T22:48:31.903Z,52.20
2022-08-14T22:50:59.566Z,52.34
2022-08-14T22:53:29.431Z,52.37
2022-08-14T22:55:58.314Z,52.52
2022-08-14T22:58:30.425Z,52.45
2022-08-14T23:01:02.227Z,52.48
2022-08-14T23:03:34.768Z,52.41
2022-08-14T23:07:02.019Z,52.63
2022-08-14T23:09:01.396Z,52.60
2022-08-14T23:11:46.238Z,52.71
2022-08-14T23:14:23.864Z,52.73
2022-08-14T23:16:57.115Z,52.74
2022-08-14T23:19:25.718Z,52.71
2022-08-14T23:22:01.041Z,52.84
2022-08-14T23:24:27.994Z,52.85
2022-08-14T23:26:56.194Z,52.81
2022-08-14T23:29:23.110Z,52.81
2022-08-14T23:31:50.153Z,52.86
2022-08-14T23:34:20.920Z,52.91
2022-08-14T23:36:54.377Z,52.85
2022-08-14T23:39:30.531Z,52.78
2022-08-14T23:42:02.317Z,52.90
2022-08-14T23:44:35.205Z,52.93
2022-08-14T23:47:10.916Z,52.94
2022-08-14T23:49:56.485Z,52.90
2022-08-14T23:52:51.050Z,53.00
2022-08-14T23:55:15.628Z,53.02
2022-08-14T23:57:43.667Z,53.01
